createdAt,value
2023-05-12T00:02:24.080Z,7.60
2023-05-12T00:04:51.592Z,3.70
2023-05-12T00:07:18.705Z,8.20
2023-05-12T00:09:45.577Z,4.80
2023-05-12T00:12:12.433Z,8.40
2023-05-12T00:14:39.336Z,11.00
2023-05-12T00:17:06.880Z,12.30
2023-05-12T00:19:34.789Z,14.10
2023-05-12T00:22:02.077Z,18.80
2023-05-12T00:24:30.760Z,12.40
2023-05-12T00:26:57.673Z,15.90
2023-05-12T00:29:24.557Z,15.30
2023-05-12T00:31:51.533Z,9.60
2023-05-12T00:34:18.550Z,22.90
2023-05-12T00:36:45.412Z,6.30
2023-05-12T00:39:12.430Z,5.00
2023-05-12T00:41:39.369Z,7.70
2023-05-12T00:44:06.830Z,8.10
2023-05-12T00:46:34.115Z,11.30
2023-05-12T00:49:01.123Z,6.90
2023-05-12T00:51:28.066Z,9.40
2023-05-12T00:53:57.055Z,4.20
2023-05-12T00:56:23.928Z,8.60
2023-05-12T00:58:50.897Z,5.20
2023-05-12T01:01:18.440Z,2.50
2023-05-12T01:03:47.348Z,4.50
2023-05-12T01:06:32.164Z,3.00
2023-05-12T01:08:59.313Z,4.20
2023-05-12T01:11:26.359Z,2.40
2023-05-12T01:13:53.405Z,5.60
2023-05-12T01:16:23.953Z,3.50
2023-05-12T01:18:53.587Z,4.60
2023-05-12T01:21:21.308Z,8.30
2023-05-12T01:24:03.258Z,4.40
2023-05-12T01:26:32.597Z,4.20
2023-05-12T01:29:02.002Z,7.60
2023-05-12T01:31:29.381Z,8.40
2023-05-12T01:33:56.605Z,4.20
2023-05-12T01:36:24.089Z,3.40
2023-05-12T01:38:51.620Z,6.40
2023-05-12T01:41:18.861Z,4.50
2023-05-12T01:43:46.521Z,9.20
2023-05-12T01:46:14.112Z,6.30
2023-05-12T01:48:41.631Z,5.10
2023-05-12T01:51:09.329Z,6.10
2023-05-12T01:53:36.793Z,9.90
2023-05-12T01:56:03.989Z,5.70
2023-05-12T01:58:32.161Z,5.90
2023-05-12T02:00:59.822Z,2.90
2023-05-12T02:03:27.005Z,2.10
2023-05-12T02:05:55.657Z,3.60
2023-05-12T02:08:22.697Z,4.60
2023-05-12T02:10:49.870Z,3.20
2023-05-12T02:13:17.201Z,4.60
2023-05-12T02:15:44.203Z,4.30
2023-05-12T02:18:11.616Z,4.20
2023-05-12T02:20:39.472Z,4.10
2023-05-12T02:23:06.719Z,6.40
2023-05-12T02:25:33.773Z,16.00
2023-05-12T02:28:00.817Z,17.10
2023-05-12T02:30:27.856Z,15.50
2023-05-12T02:32:54.838Z,13.70
2023-05-12T02:35:22.155Z,15.90
2023-05-12T02:37:49.154Z,13.70
2023-05-12T02:40:16.729Z,20.80
2023-05-12T02:42:45.762Z,18.30
2023-05-12T02:45:13.306Z,10.20
2023-05-12T02:47:40.730Z,5.20
2023-05-12T02:50:09.732Z,6.70
2023-05-12T02:52:36.704Z,8.80
2023-05-12T02:55:04.050Z,8.30
2023-05-12T02:57:34.268Z,8.10
2023-05-12T03:00:02.234Z,10.40
2023-05-12T03:02:29.751Z,6.20
2023-05-12T03:04:56.942Z,8.20
2023-05-12T03:07:24.192Z,8.60
2023-05-12T03:09:51.241Z,7.50
2023-05-12T03:12:18.326Z,4.50
2023-05-12T03:14:45.440Z,10.30
2023-05-12T03:17:12.456Z,5.00
2023-05-12T03:19:39.852Z,4.70
2023-05-12T03:22:09.744Z,3.40
2023-05-12T03:24:37.098Z,10.80
2023-05-12T03:27:05.885Z,4.50
2023-05-12T03:29:32.933Z,7.40
2023-05-12T03:32:00.179Z,3.90
2023-05-12T03:34:27.221Z,7.70
2023-05-12T03:36:55.402Z,5.80
2023-05-12T03:39:25.112Z,9.10
2023-05-12T03:41:52.107Z,8.00
2023-05-12T03:44:19.208Z,9.50
2023-05-12T03:46:46.285Z,13.00
2023-05-12T03:49:14.024Z,24.10
2023-05-12T03:51:41.469Z,8.90
2023-05-12T03:54:09.173Z,11.50
2023-05-12T03:56:36.531Z,12.00
2023-05-12T03:59:04.270Z,12.70
2023-05-12T04:01:31.999Z,15.50
2023-05-12T04:04:01.031Z,12.30
2023-05-12T04:06:28.142Z,9.60
2023-05-12T04:08:55.312Z,12.70
2023-05-12T04:11:22.328Z,7.10
2023-05-12T04:13:49.732Z,8.90
2023-05-12T04:16:16.760Z,12.60
2023-05-12T04:18:43.769Z,10.90
2023-05-12T04:21:10.825Z,10.70
2023-05-12T04:23:37.868Z,6.80
2023-05-12T04:26:05.477Z,9.40
2023-05-12T04:28:32.475Z,10.90
2023-05-12T04:31:04.565Z,10.30
2023-05-12T04:33:32.227Z,8.10
2023-05-12T04:35:59.378Z,10.80
2023-05-12T04:38:27.429Z,7.20
2023-05-12T04:40:59.447Z,9.80
2023-05-12T04:45:59.840Z,11.60
2023-05-12T04:48:29.193Z,23.60
2023-05-12T04:50:59.690Z,8.30
2023-05-12T04:53:27.882Z,11.60
2023-05-12T04:55:56.757Z,11.00
2023-05-12T04:58:24.470Z,15.50
2023-05-12T05:00:51.631Z,15.90
2023-05-12T05:03:18.847Z,12.70
2023-05-12T05:05:46.238Z,10.70
2023-05-12T05:08:13.383Z,11.40
2023-05-12T05:10:40.836Z,9.90
2023-05-12T05:13:08.292Z,10.00
2023-05-12T05:15:35.471Z,7.90
2023-05-12T05:18:02.732Z,7.20
2023-05-12T05:20:32.382Z,10.80
2023-05-12T05:23:00.269Z,16.70
2023-05-12T05:25:28.241Z,10.60
2023-05-12T05:27:56.198Z,9.30
2023-05-12T05:30:23.354Z,11.80
2023-05-12T05:32:51.375Z,8.40
2023-05-12T05:35:19.295Z,9.70
2023-05-12T05:37:49.202Z,10.30
2023-05-12T05:40:16.346Z,10.60
2023-05-12T05:42:43.802Z,9.00
2023-05-12T05:45:11.572Z,6.90
2023-05-12T05:47:39.436Z,4.60
2023-05-12T05:50:09.293Z,6.00
2023-05-12T05:52:39.102Z,17.70
2023-05-12T05:55:06.822Z,6.20
2023-05-12T05:57:34.361Z,9.70
2023-05-12T06:00:02.950Z,7.40
2023-05-12T06:03:13.091Z,4.80
2023-05-12T06:05:42.333Z,7.20
2023-05-12T06:08:11.307Z,8.10
2023-05-12T06:10:38.590Z,5.50
2023-05-12T06:13:05.729Z,10.50
2023-05-12T06:15:33.346Z,6.60
2023-05-12T06:18:00.535Z,3.70
2023-05-12T06:20:27.936Z,4.10
2023-05-12T06:22:55.245Z,7.10
2023-05-12T06:25:22.552Z,6.10
2023-05-12T06:27:53.140Z,3.10
2023-05-12T06:30:20.150Z,3.80
2023-05-12T06:32:47.420Z,3.00
2023-05-12T06:35:14.573Z,6.00
2023-05-12T06:37:41.868Z,3.80
2023-05-12T06:40:09.270Z,1.90
2023-05-12T06:42:36.339Z,3.30
2023-05-12T06:45:09.971Z,1.50
2023-05-12T06:47:37.025Z,3.00
2023-05-12T06:50:04.604Z,2.20
2023-05-12T06:52:31.619Z,1.60
2023-05-12T06:54:58.624Z,2.00
2023-05-12T06:57:26.495Z,1.50
2023-05-12T06:59:55.390Z,0.60
2023-05-12T07:02:22.382Z,2.00
2023-05-12T07:04:49.444Z,1.70
2023-05-12T07:07:16.519Z,1.10
2023-05-12T07:09:45.415Z,2.10
2023-05-12T07:12:13.575Z,0.90
2023-05-12T07:14:43.265Z,1.80
2023-05-12T07:17:10.915Z,1.50
2023-05-12T07:19:39.852Z,3.30
2023-05-12T07:22:07.860Z,1.30
2023-05-12T07:24:35.172Z,2.90
2023-05-12T07:27:02.730Z,2.80
2023-05-12T07:29:30.115Z,1.30
2023-05-12T07:31:57.095Z,1.40
2023-05-12T07:34:24.425Z,1.40
2023-05-12T07:36:51.983Z,0.90
2023-05-12T07:39:23.972Z,1.00
2023-05-12T07:41:55.107Z,2.70
2023-05-12T07:44:25.462Z,4.10
2023-05-12T07:47:03.914Z,1.20
2023-05-12T07:49:34.918Z,3.00
2023-05-12T07:52:02.579Z,5.00
2023-05-12T07:54:29.531Z,2.00
2023-05-12T07:56:57.469Z,1.00
2023-05-12T07:59:25.097Z,2.00
2023-05-12T08:01:53.897Z,0.90
2023-05-12T08:04:21.170Z,3.80
2023-05-12T08:06:50.747Z,0.60
2023-05-12T08:09:17.921Z,1.30
2023-05-12T08:11:47.122Z,1.70
2023-05-12T08:14:15.455Z,1.90
2023-05-12T08:16:45.597Z,1.60
2023-05-12T08:19:14.014Z,3.80
2023-05-12T08:21:41.059Z,1.80
2023-05-12T08:24:09.872Z,1.00
2023-05-12T08:34:13.472Z,0.90
2023-05-12T08:36:42.556Z,2.10
2023-05-12T08:39:12.827Z,0.50
2023-05-12T08:41:45.407Z,2.30
2023-05-12T08:44:12.668Z,1.70
2023-05-12T08:46:41.457Z,1.80
2023-05-12T08:49:13.577Z,2.00
2023-05-12T08:51:49.924Z,1.40
2023-05-12T08:54:31.157Z,1.20
2023-05-12T08:59:40.873Z,1.20
2023-05-12T09:02:09.717Z,0.90
2023-05-12T09:04:38.542Z,1.00
2023-05-12T09:07:08.616Z,1.40
2023-05-12T09:09:36.572Z,1.30
2023-05-12T09:12:06.122Z,1.20
2023-05-12T09:14:38.264Z,0.90
2023-05-12T09:17:11.105Z,1.70
2023-05-12T09:19:43.752Z,0.90
2023-05-12T09:22:16.087Z,13.10
2023-05-12T09:24:44.325Z,1.90
2023-05-12T09:27:11.342Z,2.00
2023-05-12T09:29:55.604Z,1.80
2023-05-12T09:32:33.412Z,1.10
2023-05-12T09:35:13.629Z,2.30
2023-05-12T09:37:43.505Z,0.90
2023-05-12T09:40:14.192Z,1.00
2023-05-12T09:42:41.399Z,1.20
2023-05-12T09:45:11.671Z,0.70
2023-05-12T09:47:39.605Z,5.00
2023-05-12T09:50:07.944Z,1.30
2023-05-12T09:52:38.997Z,0.90
2023-05-12T09:55:08.412Z,1.20
2023-05-12T10:00:40.924Z,1.30
2023-05-12T10:03:17.694Z,2.60
2023-05-12T10:05:59.392Z,1.10
2023-05-12T10:08:32.694Z,1.30
2023-05-12T10:11:00.035Z,2.90
2023-05-12T10:13:27.116Z,1.60
2023-05-12T10:15:55.938Z,1.50
2023-05-12T10:18:23.500Z,2.60
2023-05-12T10:20:50.500Z,0.80
2023-05-12T10:23:17.884Z,1.60
2023-05-12T10:25:44.929Z,2.80
2023-05-12T10:28:12.087Z,2.50
2023-05-12T10:30:39.762Z,1.30
2023-05-12T10:33:08.953Z,1.60
2023-05-12T10:35:36.618Z,1.30
2023-05-12T10:38:07.872Z,0.70
2023-05-12T10:40:34.767Z,1.20
2023-05-12T10:43:01.702Z,1.60
2023-05-12T10:45:34.846Z,3.60
2023-05-12T10:48:09.308Z,4.10
2023-05-12T10:50:36.478Z,0.60
2023-05-12T10:53:03.485Z,3.80
2023-05-12T10:55:35.182Z,4.30
2023-05-12T10:58:15.443Z,0.90
2023-05-12T11:00:51.800Z,1.20
2023-05-12T11:03:25.792Z,2.00
2023-05-12T11:06:01.224Z,1.30
2023-05-12T11:08:28.787Z,1.30
2023-05-12T11:10:56.168Z,0.90
2023-05-12T11:13:23.298Z,2.40
2023-05-12T11:15:52.439Z,1.70
2023-05-12T11:18:23.264Z,2.50
2023-05-12T11:20:50.869Z,0.70
2023-05-12T11:23:29.034Z,1.10
2023-05-12T11:25:56.467Z,1.60
2023-05-12T11:32:16.379Z,0.60
2023-05-12T11:34:43.911Z,1.00
2023-05-12T11:37:11.156Z,1.10
2023-05-12T11:39:38.064Z,2.40
2023-05-12T11:42:12.743Z,0.30
2023-05-12T11:44:49.991Z,0.60
2023-05-12T11:47:19.834Z,0.70
2023-05-12T11:49:56.219Z,1.00
2023-05-12T11:52:26.154Z,0.40
2023-05-12T11:54:58.746Z,1.00
2023-05-12T11:57:30.278Z,1.20
2023-05-12T12:00:08.073Z,0.40
2023-05-12T12:02:39.792Z,0.50
2023-05-12T12:05:18.132Z,1.40
2023-05-12T12:07:45.513Z,2.20
2023-05-12T12:10:18.186Z,1.40
2023-05-12T12:12:47.826Z,3.20
2023-05-12T12:15:14.760Z,1.70
2023-05-12T12:17:41.701Z,1.40
2023-05-12T12:27:37.341Z,0.40
2023-05-12T12:37:52.327Z,0.90
2023-05-12T12:40:20.253Z,1.00
2023-05-12T12:42:47.512Z,2.50
2023-05-12T12:45:14.396Z,1.00
2023-05-12T12:47:41.499Z,1.80
2023-05-12T12:50:10.590Z,0.50
2023-05-12T12:52:38.649Z,0.60
2023-05-12T12:55:07.202Z,2.90
2023-05-12T12:57:34.987Z,0.30
2023-05-12T13:00:04.720Z,1.30
2023-05-12T13:02:31.801Z,3.90
2023-05-12T13:04:58.918Z,0.90
2023-05-12T13:07:25.963Z,1.40
2023-05-12T13:09:53.121Z,0.50
2023-05-12T13:12:20.182Z,0.60
2023-05-12T13:14:47.422Z,1.80
2023-05-12T13:17:14.520Z,2.30
2023-05-12T13:19:42.281Z,1.00
2023-05-12T13:22:09.879Z,1.10
2023-05-12T13:24:37.300Z,5.10
2023-05-12T13:27:08.375Z,2.20
2023-05-12T13:29:36.642Z,1.90
2023-05-12T13:32:03.893Z,3.40
2023-05-12T13:34:32.293Z,1.00
2023-05-12T13:37:07.180Z,0.80
2023-05-12T13:39:36.381Z,2.70
2023-05-12T13:42:04.620Z,1.00
2023-05-12T13:44:31.819Z,1.10
2023-05-12T13:46:58.844Z,1.00
2023-05-12T13:49:25.861Z,1.10
2023-05-12T13:51:52.783Z,2.10
2023-05-12T13:54:23.352Z,1.40
2023-05-12T13:59:21.965Z,1.30
2023-05-12T14:01:49.033Z,0.60
2023-05-12T14:04:16.204Z,1.80
2023-05-12T14:06:46.178Z,1.50
2023-05-12T14:09:14.454Z,3.70
2023-05-12T14:11:42.853Z,2.20
2023-05-12T14:14:13.271Z,0.80
2023-05-12T14:16:41.059Z,3.40
2023-05-12T14:19:08.385Z,1.00
2023-05-12T14:21:35.420Z,1.80
2023-05-12T14:24:02.450Z,0.80
2023-05-12T14:29:24.027Z,1.40
2023-05-12T18:43:56.222Z,3.90
2023-05-12T18:46:23.182Z,4.80
2023-05-12T18:48:50.269Z,4.20
2023-05-12T18:51:17.215Z,7.40
2023-05-12T18:53:44.154Z,10.10
2023-05-12T18:56:10.989Z,13.50
2023-05-12T18:58:38.971Z,9.60
2023-05-12T19:01:06.873Z,6.40
2023-05-12T19:03:34.441Z,5.80
2023-05-12T19:06:01.590Z,7.10
2023-05-12T19:08:28.482Z,9.20
2023-05-12T19:10:55.532Z,8.90
2023-05-12T19:13:22.687Z,8.30
2023-05-12T19:15:49.642Z,7.60
2023-05-12T19:18:17.392Z,13.70
2023-05-12T19:20:44.358Z,8.70
2023-05-12T19:23:11.702Z,7.70
2023-05-12T19:25:39.270Z,4.80
2023-05-12T19:28:06.457Z,6.50
2023-05-12T19:30:34.114Z,16.70
2023-05-12T19:33:01.020Z,10.60
2023-05-12T19:35:28.057Z,8.10
2023-05-12T19:37:55.106Z,6.90
2023-05-12T19:40:22.153Z,12.50
2023-05-12T19:42:50.463Z,18.70
2023-05-12T19:45:17.463Z,12.50
2023-05-12T19:47:45.255Z,10.30
2023-05-12T19:50:12.313Z,4.50
2023-05-12T19:52:39.381Z,4.60
2023-05-12T19:55:09.373Z,6.90
2023-05-12T19:57:37.777Z,11.30
2023-05-12T20:00:05.764Z,7.40
2023-05-12T20:02:39.370Z,7.50
2023-05-12T20:05:07.258Z,3.70
2023-05-12T20:07:34.309Z,5.40
2023-05-12T20:10:01.474Z,6.80
2023-05-12T20:12:28.400Z,5.00
2023-05-12T20:14:55.814Z,3.10
2023-05-12T20:17:22.898Z,5.60
2023-05-12T20:19:50.049Z,5.80
2023-05-12T20:22:16.994Z,2.60
2023-05-12T20:24:44.763Z,5.20
2023-05-12T20:27:12.217Z,3.70
2023-05-12T20:29:39.664Z,7.00
2023-05-12T20:32:06.702Z,6.80
2023-05-12T20:34:33.667Z,6.80
2023-05-12T20:37:01.221Z,8.90
2023-05-12T20:39:29.089Z,11.80
2023-05-12T20:41:56.005Z,15.60
2023-05-12T20:44:23.126Z,17.30
2023-05-12T20:46:50.499Z,16.70
2023-05-12T20:49:18.095Z,14.80
2023-05-12T20:51:45.028Z,9.90
2023-05-12T20:54:11.930Z,7.00
2023-05-12T20:56:38.916Z,7.90
2023-05-12T20:59:05.858Z,5.50
2023-05-12T21:01:32.801Z,8.70
2023-05-12T21:03:59.808Z,8.40
2023-05-12T21:06:27.347Z,8.60
2023-05-12T21:08:54.316Z,10.90
2023-05-12T21:11:21.598Z,6.90
2023-05-12T21:13:48.650Z,11.30
2023-05-12T21:16:16.860Z,8.60
2023-05-12T21:18:44.174Z,8.50
2023-05-12T21:21:11.165Z,15.80
2023-05-12T21:23:38.218Z,7.40
2023-05-12T21:26:05.564Z,13.00
2023-05-12T21:28:32.451Z,15.80
2023-05-12T21:30:59.329Z,10.50
2023-05-12T21:33:26.184Z,8.30
2023-05-12T21:35:53.186Z,9.10
2023-05-12T21:38:20.965Z,8.80
2023-05-12T21:40:56.504Z,11.90
2023-05-12T21:43:23.435Z,12.30
2023-05-12T21:45:50.542Z,12.10
2023-05-12T21:48:18.054Z,16.90
2023-05-12T21:50:45.190Z,8.90
2023-05-12T21:53:12.135Z,4.80
2023-05-12T21:55:40.825Z,9.20
2023-05-12T21:58:07.794Z,20.20
2023-05-12T22:00:34.666Z,10.20
2023-05-12T22:03:01.690Z,9.40
2023-05-12T22:05:28.802Z,4.40
2023-05-12T22:07:55.977Z,5.50
2023-05-12T22:10:23.089Z,5.50
2023-05-12T22:12:50.215Z,6.30
2023-05-12T22:15:18.327Z,10.70
2023-05-12T22:17:49.838Z,4.90
2023-05-12T22:20:17.532Z,9.20
2023-05-12T22:22:44.755Z,8.30
2023-05-12T22:25:11.737Z,5.80
2023-05-12T22:27:38.670Z,7.50
2023-05-12T22:30:06.660Z,5.10
2023-05-12T22:32:33.720Z,12.90
2023-05-12T22:35:01.150Z,7.30
2023-05-12T22:37:28.497Z,7.50
2023-05-12T22:39:55.516Z,10.10
2023-05-12T22:42:22.687Z,6.60
2023-05-12T22:44:50.181Z,8.20
2023-05-12T22:47:17.213Z,3.60
2023-05-12T22:49:44.190Z,10.00
2023-05-12T22:52:11.591Z,8.00
2023-05-12T22:54:38.431Z,9.10
2023-05-12T22:57:05.621Z,7.80
2023-05-12T22:59:32.510Z,11.30
2023-05-12T23:01:59.415Z,15.40
2023-05-12T23:04:26.352Z,14.00
2023-05-12T23:06:53.338Z,10.50
2023-05-12T23:09:20.297Z,10.10
2023-05-12T23:11:47.190Z,13.30
2023-05-12T23:14:14.249Z,9.80
2023-05-12T23:16:41.333Z,9.40
2023-05-12T23:19:08.522Z,8.00
2023-05-12T23:21:35.770Z,11.30
2023-05-12T23:24:02.740Z,6.70
2023-05-12T23:26:29.698Z,7.10
2023-05-12T23:28:56.601Z,7.30
2023-05-12T23:31:23.587Z,8.90
2023-05-12T23:33:50.649Z,13.90
2023-05-12T23:36:17.742Z,8.10
2023-05-12T23:38:45.014Z,8.60
2023-05-12T23:41:11.909Z,9.50
2023-05-12T23:43:39.169Z,8.50
2023-05-12T23:46:06.043Z,7.40
2023-05-12T23:48:33.262Z,13.40
2023-05-12T23:51:00.158Z,9.40
2023-05-12T23:53:27.131Z,5.40
2023-05-12T23:55:54.030Z,6.80
2023-05-12T23:58:21.151Z,6.80
